sensor_id;sensor_type;location;lat;lon;timestamp;temperature;humidity
13198;DHT22;6664;52.514;13.440;2022-08-30T00:01:33;15.20;89.60
13198;DHT22;6664;52.514;13.440;2022-08-30T00:04:00;15.10;89.90
13198;DHT22;6664;52.514;13.440;2022-08-30T00:06:29;15.10;90.40
13198;DHT22;6664;52.514;13.440;2022-08-30T00:08:58;15.10;90.70
13198;DHT22;6664;52.514;13.440;2022-08-30T00:11:27;15.10;91.10
13198;DHT22;6664;52.514;13.440;2022-08-30T00:13:56;15.10;91.20
13198;DHT22;6664;52.514;13.440;2022-08-30T00:16:24;15.10;91.60
13198;DHT22;6664;52.514;13.440;2022-08-30T00:18:52;15.10;91.80
13198;DHT22;6664;52.514;13.440;2022-08-30T00:21:22;15.20;91.90
13198;DHT22;6664;52.514;13.440;2022-08-30T00:23:49;15.20;92.00
13198;DHT22;6664;52.514;13.440;2022-08-30T00:26:16;15.20;92.10
13198;DHT22;6664;52.514;13.440;2022-08-30T00:28:43;15.20;92.20
13198;DHT22;6664;52.514;13.440;2022-08-30T00:31:10;15.30;92.20
13198;DHT22;6664;52.514;13.440;2022-08-30T00:33:40;15.30;92.30
13198;DHT22;6664;52.514;13.440;2022-08-30T00:36:07;15.40;92.30
13198;DHT22;6664;52.514;13.440;2022-08-30T00:38:34;15.40;92.20
13198;DHT22;6664;52.514;13.440;2022-08-30T00:41:01;15.40;92.10
13198;DHT22;6664;52.514;13.440;2022-08-30T00:43:30;15.30;91.90
13198;DHT22;6664;52.514;13.440;2022-08-30T00:46:02;15.30;91.90
13198;DHT22;6664;52.514;13.440;2022-08-30T00:48:31;15.30;92.00
13198;DHT22;6664;52.514;13.440;2022-08-30T00:51:02;15.30;92.00
13198;DHT22;6664;52.514;13.440;2022-08-30T00:53:33;15.20;92.10
13198;DHT22;6664;52.514;13.440;2022-08-30T00:56:03;15.20;92.20
13198;DHT22;6664;52.514;13.440;2022-08-30T00:58:34;15.20;92.30
13198;DHT22;6664;52.514;13.440;2022-08-30T01:01:04;15.20;92.50
13198;DHT22;6664;52.514;13.440;2022-08-30T01:03:33;15.20;92.70
13198;DHT22;6664;52.514;13.440;2022-08-30T01:06:03;15.30;92.70
13198;DHT22;6664;52.514;13.440;2022-08-30T01:08:34;15.30;92.70
13198;DHT22;6664;52.514;13.440;2022-08-30T01:11:02;15.20;92.60
13198;DHT22;6664;52.514;13.440;2022-08-30T01:13:29;15.20;92.60
13198;DHT22;6664;52.514;13.440;2022-08-30T01:15:59;15.20;92.80
13198;DHT22;6664;52.514;13.440;2022-08-30T01:18:28;15.20;92.70
13198;DHT22;6664;52.514;13.440;2022-08-30T01:23:35;15.10;92.80
13198;DHT22;6664;52.514;13.440;2022-08-30T01:26:04;15.10;92.90
13198;DHT22;6664;52.514;13.440;2022-08-30T01:28:32;15.00;93.00
13198;DHT22;6664;52.514;13.440;2022-08-30T01:31:00;15.00;93.20
13198;DHT22;6664;52.514;13.440;2022-08-30T01:33:27;14.90;93.20
13198;DHT22;6664;52.514;13.440;2022-08-30T01:36:03;14.90;93.30
13198;DHT22;6664;52.514;13.440;2022-08-30T01:38:35;14.80;93.50
13198;DHT22;6664;52.514;13.440;2022-08-30T01:41:32;14.80;93.80
13198;DHT22;6664;52.514;13.440;2022-08-30T01:44:06;14.70;94.00
13198;DHT22;6664;52.514;13.440;2022-08-30T01:46:39;14.70;94.30
13198;DHT22;6664;52.514;13.440;2022-08-30T01:49:09;14.70;94.60
13198;DHT22;6664;52.514;13.440;2022-08-30T01:51:37;14.70;94.90
13198;DHT22;6664;52.514;13.440;2022-08-30T01:54:05;14.80;95.40
13198;DHT22;6664;52.514;13.440;2022-08-30T01:56:32;14.90;95.50
13198;DHT22;6664;52.514;13.440;2022-08-30T01:59:03;14.90;95.70
13198;DHT22;6664;52.514;13.440;2022-08-30T02:01:32;14.90;95.80
13198;DHT22;6664;52.514;13.440;2022-08-30T02:04:03;14.90;95.90
13198;DHT22;6664;52.514;13.440;2022-08-30T02:06:30;14.90;96.00
13198;DHT22;6664;52.514;13.440;2022-08-30T02:08:57;14.90;96.00
13198;DHT22;6664;52.514;13.440;2022-08-30T02:11:24;14.80;96.00
13198;DHT22;6664;52.514;13.440;2022-08-30T02:13:52;14.70;96.00
13198;DHT22;6664;52.514;13.440;2022-08-30T02:16:20;14.70;96.30
13198;DHT22;6664;52.514;13.440;2022-08-30T02:18:52;14.70;96.50
13198;DHT22;6664;52.514;13.440;2022-08-30T02:21:19;14.70;97.10
13198;DHT22;6664;52.514;13.440;2022-08-30T02:23:49;14.80;97.10
13198;DHT22;6664;52.514;13.440;2022-08-30T02:26:16;14.70;97.30
13198;DHT22;6664;52.514;13.440;2022-08-30T02:28:44;14.70;97.50
13198;DHT22;6664;52.514;13.440;2022-08-30T02:31:19;14.70;97.50
13198;DHT22;6664;52.514;13.440;2022-08-30T02:33:52;14.70;97.70
13198;DHT22;6664;52.514;13.440;2022-08-30T02:36:20;14.70;98.00
13198;DHT22;6664;52.514;13.440;2022-08-30T02:38:48;14.60;98.00
13198;DHT22;6664;52.514;13.440;2022-08-30T02:41:17;14.60;98.30
13198;DHT22;6664;52.514;13.440;2022-08-30T02:43:46;14.70;98.60
13198;DHT22;6664;52.514;13.440;2022-08-30T02:46:13;14.70;98.70
13198;DHT22;6664;52.514;13.440;2022-08-30T02:48:40;14.70;98.80
13198;DHT22;6664;52.514;13.440;2022-08-30T02:51:12;14.70;98.90
13198;DHT22;6664;52.514;13.440;2022-08-30T02:53:41;14.60;98.90
13198;DHT22;6664;52.514;13.440;2022-08-30T02:56:12;14.50;99.00
13198;DHT22;6664;52.514;13.440;2022-08-30T02:58:42;14.50;99.30
13198;DHT22;6664;52.514;13.440;2022-08-30T03:01:11;14.50;99.40
13198;DHT22;6664;52.514;13.440;2022-08-30T03:03:43;14.50;99.50
13198;DHT22;6664;52.514;13.440;2022-08-30T03:06:11;14.50;99.70
13198;DHT22;6664;52.514;13.440;2022-08-30T03:08:40;14.50;99.90
13198;DHT22;6664;52.514;13.440;2022-08-30T03:11:08;14.50;99.90
13198;DHT22;6664;52.514;13.440;2022-08-30T03:13:35;14.60;99.90
13198;DHT22;6664;52.514;13.440;2022-08-30T03:16:04;14.50;99.90
13198;DHT22;6664;52.514;13.440;2022-08-30T03:18:31;14.50;99.90
13198;DHT22;6664;52.514;13.440;2022-08-30T03:20:59;14.40;99.90
13198;DHT22;6664;52.514;13.440;2022-08-30T03:23:25;14.30;99.90
13198;DHT22;6664;52.514;13.440;2022-08-30T03:25:53;14.30;99.90
13198;DHT22;6664;52.514;13.440;2022-08-30T03:28:22;14.20;99.90
13198;DHT22;6664;52.514;13.440;2022-08-30T03:30:51;14.30;99.90
13198;DHT22;6664;52.514;13.440;2022-08-30T03:33:18;14.30;99.90
13198;DHT22;6664;52.514;13.440;2022-08-30T03:35:47;14.30;99.90
13198;DHT22;6664;52.514;13.440;2022-08-30T03:38:16;14.30;99.90
13198;DHT22;6664;52.514;13.440;2022-08-30T03:40:44;14.30;99.90
13198;DHT22;6664;52.514;13.440;2022-08-30T03:43:12;14.40;99.90
13198;DHT22;6664;52.514;13.440;2022-08-30T03:45:39;14.40;99.90
13198;DHT22;6664;52.514;13.440;2022-08-30T03:48:06;14.40;99.90
13198;DHT22;6664;52.514;13.440;2022-08-30T03:50:33;14.50;99.90
13198;DHT22;6664;52.514;13.440;2022-08-30T03:53:02;14.50;99.90
13198;DHT22;6664;52.514;13.440;2022-08-30T03:55:32;14.50;99.90
13198;DHT22;6664;52.514;13.440;2022-08-30T03:57:58;14.50;99.90
13198;DHT22;6664;52.514;13.440;2022-08-30T04:00:28;14.50;99.90
13198;DHT22;6664;52.514;13.440;2022-08-30T04:02:58;14.50;99.90
13198;DHT22;6664;52.514;13.440;2022-08-30T04:05:25;14.50;99.90
13198;DHT22;6664;52.514;13.440;2022-08-30T04:07:55;14.40;99.90
13198;DHT22;6664;52.514;13.440;2022-08-30T04:10:22;14.40;99.90
13198;DHT22;6664;52.514;13.440;2022-08-30T04:12:49;14.40;99.90
13198;DHT22;6664;52.514;13.440;2022-08-30T04:15:17;14.30;99.90
13198;DHT22;6664;52.514;13.440;2022-08-30T04:17:45;14.40;99.90
13198;DHT22;6664;52.514;13.440;2022-08-30T04:20:12;14.40;99.90
13198;DHT22;6664;52.514;13.440;2022-08-30T04:22:43;14.40;99.90
13198;DHT22;6664;52.514;13.440;2022-08-30T04:25:13;14.40;99.90
13198;DHT22;6664;52.514;13.440;2022-08-30T04:27:41;14.40;99.90
13198;DHT22;6664;52.514;13.440;2022-08-30T04:30:08;14.40;99.90
13198;DHT22;6664;52.514;13.440;2022-08-30T04:32:35;14.50;99.90
13198;DHT22;6664;52.514;13.440;2022-08-30T04:35:04;14.50;99.90
13198;DHT22;6664;52.514;13.440;2022-08-30T04:37:32;14.50;99.90
13198;DHT22;6664;52.514;13.440;2022-08-30T04:39:58;14.50;99.90
13198;DHT22;6664;52.514;13.440;2022-08-30T04:42:27;14.60;99.90
13198;DHT22;6664;52.514;13.440;2022-08-30T04:45:00;14.60;99.90
13198;DHT22;6664;52.514;13.440;2022-08-30T04:47:31;14.50;99.90
13198;DHT22;6664;52.514;13.440;2022-08-30T04:49:58;14.60;99.90
13198;DHT22;6664;52.514;13.440;2022-08-30T04:52:28;14.70;99.90
13198;DHT22;6664;52.514;13.440;2022-08-30T04:55:00;14.80;99.90
13198;DHT22;6664;52.514;13.440;2022-08-30T04:57:31;14.90;99.90
13198;DHT22;6664;52.514;13.440;2022-08-30T04:59:58;15.00;99.90
13198;DHT22;6664;52.514;13.440;2022-08-30T05:02:29;15.10;99.90
13198;DHT22;6664;52.514;13.440;2022-08-30T05:05:00;15.10;99.90
13198;DHT22;6664;52.514;13.440;2022-08-30T05:07:46;15.10;99.90
13198;DHT22;6664;52.514;13.440;2022-08-30T05:10:13;15.10;99.90
13198;DHT22;6664;52.514;13.440;2022-08-30T05:12:45;15.20;99.90
13198;DHT22;6664;52.514;13.440;2022-08-30T05:15:15;15.30;99.90
13198;DHT22;6664;52.514;13.440;2022-08-30T05:17:42;15.40;99.90
13198;DHT22;6664;52.514;13.440;2022-08-30T05:20:10;15.40;99.90
13198;DHT22;6664;52.514;13.440;2022-08-30T05:22:41;15.50;99.90
13198;DHT22;6664;52.514;13.440;2022-08-30T05:25:27;15.50;99.20
13198;DHT22;6664;52.514;13.440;2022-08-30T05:27:55;15.60;98.70
13198;DHT22;6664;52.514;13.440;2022-08-30T05:30:23;15.70;97.90
13198;DHT22;6664;52.514;13.440;2022-08-30T05:32:51;15.70;97.10
13198;DHT22;6664;52.514;13.440;2022-08-30T05:35:19;15.70;96.40
13198;DHT22;6664;52.514;13.440;2022-08-30T05:37:51;15.70;95.80
13198;DHT22;6664;52.514;13.440;2022-08-30T05:40:18;15.80;95.20
13198;DHT22;6664;52.514;13.440;2022-08-30T05:42:46;15.90;94.80
13198;DHT22;6664;52.514;13.440;2022-08-30T05:45:13;16.00;94.20
13198;DHT22;6664;52.514;13.440;2022-08-30T05:47:43;16.10;93.70
13198;DHT22;6664;52.514;13.440;2022-08-30T05:50:10;16.20;93.20
13198;DHT22;6664;52.514;13.440;2022-08-30T05:52:41;16.30;92.60
13198;DHT22;6664;52.514;13.440;2022-08-30T05:55:11;16.40;92.10
13198;DHT22;6664;52.514;13.440;2022-08-30T05:57:39;16.60;91.60
13198;DHT22;6664;52.514;13.440;2022-08-30T06:00:12;16.70;91.00
13198;DHT22;6664;52.514;13.440;2022-08-30T06:02:40;16.90;90.40
13198;DHT22;6664;52.514;13.440;2022-08-30T06:05:10;17.10;90.00
13198;DHT22;6664;52.514;13.440;2022-08-30T06:07:40;17.20;89.10
13198;DHT22;6664;52.514;13.440;2022-08-30T06:10:07;17.40;87.60
13198;DHT22;6664;52.514;13.440;2022-08-30T06:12:37;17.50;86.40
13198;DHT22;6664;52.514;13.440;2022-08-30T06:15:04;17.60;85.10
13198;DHT22;6664;52.514;13.440;2022-08-30T06:17:31;17.70;84.00
13198;DHT22;6664;52.514;13.440;2022-08-30T06:19:58;17.80;83.50
13198;DHT22;6664;52.514;13.440;2022-08-30T06:22:24;18.00;82.70
13198;DHT22;6664;52.514;13.440;2022-08-30T06:24:51;18.00;81.50
13198;DHT22;6664;52.514;13.440;2022-08-30T06:27:23;18.10;80.30
13198;DHT22;6664;52.514;13.440;2022-08-30T06:29:52;18.20;80.30
13198;DHT22;6664;52.514;13.440;2022-08-30T06:32:19;18.40;79.10
13198;DHT22;6664;52.514;13.440;2022-08-30T06:34:47;18.60;77.90
13198;DHT22;6664;52.514;13.440;2022-08-30T06:37:16;18.80;76.60
13198;DHT22;6664;52.514;13.440;2022-08-30T06:39:59;18.80;75.60
13198;DHT22;6664;52.514;13.440;2022-08-30T06:42:31;18.80;75.40
13198;DHT22;6664;52.514;13.440;2022-08-30T06:44:59;18.90;74.60
13198;DHT22;6664;52.514;13.440;2022-08-30T06:47:28;19.10;73.60
13198;DHT22;6664;52.514;13.440;2022-08-30T06:49:56;19.10;73.30
13198;DHT22;6664;52.514;13.440;2022-08-30T06:52:24;19.20;73.40
13198;DHT22;6664;52.514;13.440;2022-08-30T06:54:55;19.20;72.30
13198;DHT22;6664;52.514;13.440;2022-08-30T06:57:25;19.20;71.50
13198;DHT22;6664;52.514;13.440;2022-08-30T06:59:56;19.30;71.20
13198;DHT22;6664;52.514;13.440;2022-08-30T07:02:25;19.50;71.00
13198;DHT22;6664;52.514;13.440;2022-08-30T07:04:53;19.60;70.50
13198;DHT22;6664;52.514;13.440;2022-08-30T07:07:22;19.80;69.40
13198;DHT22;6664;52.514;13.440;2022-08-30T07:09:49;19.90;68.80
13198;DHT22;6664;52.514;13.440;2022-08-30T07:12:16;20.00;68.30
13198;DHT22;6664;52.514;13.440;2022-08-30T07:14:43;20.00;67.50
13198;DHT22;6664;52.514;13.440;2022-08-30T07:17:12;19.80;67.40
13198;DHT22;6664;52.514;13.440;2022-08-30T07:20:01;19.80;67.60
13198;DHT22;6664;52.514;13.440;2022-08-30T07:22:31;19.80;67.70
13198;DHT22;6664;52.514;13.440;2022-08-30T07:24:58;19.80;67.30
13198;DHT22;6664;52.514;13.440;2022-08-30T07:27:27;19.90;67.40
13198;DHT22;6664;52.514;13.440;2022-08-30T07:29:54;20.10;66.40
13198;DHT22;6664;52.514;13.440;2022-08-30T07:32:21;20.30;66.20
13198;DHT22;6664;52.514;13.440;2022-08-30T07:34:51;20.40;65.10
13198;DHT22;6664;52.514;13.440;2022-08-30T07:37:18;20.50;64.50
13198;DHT22;6664;52.514;13.440;2022-08-30T07:39:45;20.40;63.70
13198;DHT22;6664;52.514;13.440;2022-08-30T07:42:14;20.20;64.10
13198;DHT22;6664;52.514;13.440;2022-08-30T07:44:43;20.30;64.20
13198;DHT22;6664;52.514;13.440;2022-08-30T07:47:10;20.20;64.30
13198;DHT22;6664;52.514;13.440;2022-08-30T07:49:37;20.20;64.30
13198;DHT22;6664;52.514;13.440;2022-08-30T07:52:04;20.10;63.50
13198;DHT22;6664;52.514;13.440;2022-08-30T07:54:34;20.00;63.40
13198;DHT22;6664;52.514;13.440;2022-08-30T07:57:00;19.80;64.20
13198;DHT22;6664;52.514;13.440;2022-08-30T07:59:27;19.80;64.40
13198;DHT22;6664;52.514;13.440;2022-08-30T08:01:59;20.00;64.40
13198;DHT22;6664;52.514;13.440;2022-08-30T08:04:26;20.30;63.50
13198;DHT22;6664;52.514;13.440;2022-08-30T08:06:58;20.00;63.00
13198;DHT22;6664;52.514;13.440;2022-08-30T08:09:25;20.20;63.40
13198;DHT22;6664;52.514;13.440;2022-08-30T08:11:52;20.30;62.10
13198;DHT22;6664;52.514;13.440;2022-08-30T08:14:18;20.70;61.10
13198;DHT22;6664;52.514;13.440;2022-08-30T08:16:47;21.00;59.50
13198;DHT22;6664;52.514;13.440;2022-08-30T08:19:14;21.30;58.80
13198;DHT22;6664;52.514;13.440;2022-08-30T08:21:44;21.40;57.40
13198;DHT22;6664;52.514;13.440;2022-08-30T08:24:13;21.50;56.60
13198;DHT22;6664;52.514;13.440;2022-08-30T08:26:41;21.60;55.60
13198;DHT22;6664;52.514;13.440;2022-08-30T08:29:11;21.60;54.80
13198;DHT22;6664;52.514;13.440;2022-08-30T08:31:40;21.80;55.00
13198;DHT22;6664;52.514;13.440;2022-08-30T08:34:12;21.80;54.50
13198;DHT22;6664;52.514;13.440;2022-08-30T08:36:44;22.10;53.40
13198;DHT22;6664;52.514;13.440;2022-08-30T08:39:14;22.00;52.60
13198;DHT22;6664;52.514;13.440;2022-08-30T08:44:44;21.80;52.60
13198;DHT22;6664;52.514;13.440;2022-08-30T08:49:55;22.30;51.70
13198;DHT22;6664;52.514;13.440;2022-08-30T08:52:29;22.60;50.30
13198;DHT22;6664;52.514;13.440;2022-08-30T08:55:20;22.80;49.50
13198;DHT22;6664;52.514;13.440;2022-08-30T08:57:48;22.70;49.50
13198;DHT22;6664;52.514;13.440;2022-08-30T09:00:18;23.10;48.00
13198;DHT22;6664;52.514;13.440;2022-08-30T09:02:59;23.00;47.50
13198;DHT22;6664;52.514;13.440;2022-08-30T09:05:33;23.00;47.30
13198;DHT22;6664;52.514;13.440;2022-08-30T09:08:06;22.70;47.20
13198;DHT22;6664;52.514;13.440;2022-08-30T09:10:39;22.40;47.60
13198;DHT22;6664;52.514;13.440;2022-08-30T09:13:16;22.30;47.50
13198;DHT22;6664;52.514;13.440;2022-08-30T09:15:47;22.20;48.30
13198;DHT22;6664;52.514;13.440;2022-08-30T09:18:42;21.90;49.00
13198;DHT22;6664;52.514;13.440;2022-08-30T09:21:12;21.40;51.30
13198;DHT22;6664;52.514;13.440;2022-08-30T09:23:48;20.80;53.70
13198;DHT22;6664;52.514;13.440;2022-08-30T09:26:29;20.50;54.80
13198;DHT22;6664;52.514;13.440;2022-08-30T09:28:56;20.10;56.30
13198;DHT22;6664;52.514;13.440;2022-08-30T09:31:46;20.00;56.00
13198;DHT22;6664;52.514;13.440;2022-08-30T09:34:38;20.10;56.40
13198;DHT22;6664;52.514;13.440;2022-08-30T09:37:25;20.30;56.20
13198;DHT22;6664;52.514;13.440;2022-08-30T09:39:55;20.50;55.80
13198;DHT22;6664;52.514;13.440;2022-08-30T09:42:25;20.70;54.40
13198;DHT22;6664;52.514;13.440;2022-08-30T09:44:53;20.90;54.90
13198;DHT22;6664;52.514;13.440;2022-08-30T09:47:43;21.30;54.30
13198;DHT22;6664;52.514;13.440;2022-08-30T09:50:13;21.90;53.10
13198;DHT22;6664;52.514;13.440;2022-08-30T09:55:50;22.50;50.20
13198;DHT22;6664;52.514;13.440;2022-08-30T10:01:54;22.60;48.20
13198;DHT22;6664;52.514;13.440;2022-08-30T10:04:51;22.60;47.40
13198;DHT22;6664;52.514;13.440;2022-08-30T10:07:34;23.20;46.70
13198;DHT22;6664;52.514;13.440;2022-08-30T10:10:33;23.00;46.70
13198;DHT22;6664;52.514;13.440;2022-08-30T10:16:31;23.40;44.30
13198;DHT22;6664;52.514;13.440;2022-08-30T10:22:05;23.90;43.00
13198;DHT22;6664;52.514;13.440;2022-08-30T10:24:41;23.70;43.60
13198;DHT22;6664;52.514;13.440;2022-08-30T10:27:33;23.80;42.90
13198;DHT22;6664;52.514;13.440;2022-08-30T10:30:11;24.00;42.20
13198;DHT22;6664;52.514;13.440;2022-08-30T10:35:34;24.40;40.60
13198;DHT22;6664;52.514;13.440;2022-08-30T10:41:02;24.30;40.00
13198;DHT22;6664;52.514;13.440;2022-08-30T10:43:58;24.60;38.70
13198;DHT22;6664;52.514;13.440;2022-08-30T10:49:16;25.30;36.50
13198;DHT22;6664;52.514;13.440;2022-08-30T10:51:53;25.40;35.80
13198;DHT22;6664;52.514;13.440;2022-08-30T10:54:41;25.70;35.50
13198;DHT22;6664;52.514;13.440;2022-08-30T10:57:10;25.90;33.30
13198;DHT22;6664;52.514;13.440;2022-08-30T10:59:44;26.10;32.90
13198;DHT22;6664;52.514;13.440;2022-08-30T11:02:32;26.60;31.60
13198;DHT22;6664;52.514;13.440;2022-08-30T11:13:53;26.90;28.70
13198;DHT22;6664;52.514;13.440;2022-08-30T11:16:38;26.90;28.50
13198;DHT22;6664;52.514;13.440;2022-08-30T11:19:27;26.90;28.10
13198;DHT22;6664;52.514;13.440;2022-08-30T11:22:31;26.80;28.70
13198;DHT22;6664;52.514;13.440;2022-08-30T11:25:13;27.10;28.40
13198;DHT22;6664;52.514;13.440;2022-08-30T11:27:50;27.50;27.10
13198;DHT22;6664;52.514;13.440;2022-08-30T11:35:41;27.10;28.40
13198;DHT22;6664;52.514;13.440;2022-08-30T11:57:36;28.20;25.50
13198;DHT22;6664;52.514;13.440;2022-08-30T12:00:09;28.00;25.80
13198;DHT22;6664;52.514;13.440;2022-08-30T12:02:56;28.20;25.50
13198;DHT22;6664;52.514;13.440;2022-08-30T12:08:05;27.90;26.10
13198;DHT22;6664;52.514;13.440;2022-08-30T12:10:43;27.20;27.30
13198;DHT22;6664;52.514;13.440;2022-08-30T12:18:41;28.50;25.90
13198;DHT22;6664;52.514;13.440;2022-08-30T12:26:38;29.60;22.90
13198;DHT22;6664;52.514;13.440;2022-08-30T12:29:12;29.80;22.40
13198;DHT22;6664;52.514;13.440;2022-08-30T12:34:14;31.70;19.40
13198;DHT22;6664;52.514;13.440;2022-08-30T12:39:33;32.10;16.40
13198;DHT22;6664;52.514;13.440;2022-08-30T12:42:26;32.60;16.00
13198;DHT22;6664;52.514;13.440;2022-08-30T12:44:57;33.60;14.80
13198;DHT22;6664;52.514;13.440;2022-08-30T12:47:46;37.50;11.10
13198;DHT22;6664;52.514;13.440;2022-08-30T12:50:20;39.10;5.20
13198;DHT22;6664;52.514;13.440;2022-08-30T12:52:57;37.10;5.10
13198;DHT22;6664;52.514;13.440;2022-08-30T12:55:28;35.60;7.80
13198;DHT22;6664;52.514;13.440;2022-08-30T12:58:09;34.50;8.50
13198;DHT22;6664;52.514;13.440;2022-08-30T13:00:39;32.20;13.10
13198;DHT22;6664;52.514;13.440;2022-08-30T13:05:56;31.40;16.00
13198;DHT22;6664;52.514;13.440;2022-08-30T13:08:36;30.80;16.00
13198;DHT22;6664;52.514;13.440;2022-08-30T13:13:49;29.80;18.70
13198;DHT22;6664;52.514;13.440;2022-08-30T13:16:20;30.80;18.20
13198;DHT22;6664;52.514;13.440;2022-08-30T13:18:50;31.80;16.00
13198;DHT22;6664;52.514;13.440;2022-08-30T13:21:33;30.90;17.10
13198;DHT22;6664;52.514;13.440;2022-08-30T13:24:02;30.50;17.30
13198;DHT22;6664;52.514;13.440;2022-08-30T13:26:33;30.50;18.00
13198;DHT22;6664;52.514;13.440;2022-08-30T13:29:04;29.30;19.20
13198;DHT22;6664;52.514;13.440;2022-08-30T13:31:36;29.30;20.00
13198;DHT22;6664;52.514;13.440;2022-08-30T13:34:03;28.80;21.10
13198;DHT22;6664;52.514;13.440;2022-08-30T13:36:34;28.60;21.70
13198;DHT22;6664;52.514;13.440;2022-08-30T13:39:03;27.30;23.80
13198;DHT22;6664;52.514;13.440;2022-08-30T13:41:30;27.20;24.50
13198;DHT22;6664;52.514;13.440;2022-08-30T13:44:01;26.80;26.00
13198;DHT22;6664;52.514;13.440;2022-08-30T13:46:40;26.50;26.90
13198;DHT22;6664;52.514;13.440;2022-08-30T13:49:15;26.50;28.00
13198;DHT22;6664;52.514;13.440;2022-08-30T13:52:04;26.20;28.40
13198;DHT22;6664;52.514;13.440;2022-08-30T13:54:46;25.90;28.60
13198;DHT22;6664;52.514;13.440;2022-08-30T13:57:16;25.40;29.80
13198;DHT22;6664;52.514;13.440;2022-08-30T14:00:05;25.20;30.30
13198;DHT22;6664;52.514;13.440;2022-08-30T14:02:37;25.40;30.10
13198;DHT22;6664;52.514;13.440;2022-08-30T14:05:13;25.40;29.60
13198;DHT22;6664;52.514;13.440;2022-08-30T14:08:03;25.00;31.20
13198;DHT22;6664;52.514;13.440;2022-08-30T14:10:32;24.70;31.70
13198;DHT22;6664;52.514;13.440;2022-08-30T14:13:03;24.90;32.40
13198;DHT22;6664;52.514;13.440;2022-08-30T14:15:36;24.70;32.80
13198;DHT22;6664;52.514;13.440;2022-08-30T14:18:07;24.90;33.10
13198;DHT22;6664;52.514;13.440;2022-08-30T14:20:35;25.00;32.70
13198;DHT22;6664;52.514;13.440;2022-08-30T14:23:08;25.00;33.80
13198;DHT22;6664;52.514;13.440;2022-08-30T14:25:36;25.10;33.60
13198;DHT22;6664;52.514;13.440;2022-08-30T14:28:07;25.30;33.50
13198;DHT22;6664;52.514;13.440;2022-08-30T14:30:35;25.60;32.20
13198;DHT22;6664;52.514;13.440;2022-08-30T14:33:02;26.10;32.20
13198;DHT22;6664;52.514;13.440;2022-08-30T14:35:29;25.50;33.00
13198;DHT22;6664;52.514;13.440;2022-08-30T14:37:58;25.20;33.20
13198;DHT22;6664;52.514;13.440;2022-08-30T14:40:25;24.70;33.80
13198;DHT22;6664;52.514;13.440;2022-08-30T14:42:53;24.70;34.00
13198;DHT22;6664;52.514;13.440;2022-08-30T14:45:20;24.70;33.80
13198;DHT22;6664;52.514;13.440;2022-08-30T14:47:50;24.70;34.00
13198;DHT22;6664;52.514;13.440;2022-08-30T14:50:22;24.60;34.40
13198;DHT22;6664;52.514;13.440;2022-08-30T14:52:53;24.20;35.00
13198;DHT22;6664;52.514;13.440;2022-08-30T14:55:20;23.80;35.80
13198;DHT22;6664;52.514;13.440;2022-08-30T14:57:49;24.00;37.30
13198;DHT22;6664;52.514;13.440;2022-08-30T15:00:17;24.30;35.60
13198;DHT22;6664;52.514;13.440;2022-08-30T15:02:45;24.20;35.90
13198;DHT22;6664;52.514;13.440;2022-08-30T15:05:15;24.40;35.90
13198;DHT22;6664;52.514;13.440;2022-08-30T15:07:42;24.20;35.40
13198;DHT22;6664;52.514;13.440;2022-08-30T15:10:10;23.70;36.70
13198;DHT22;6664;52.514;13.440;2022-08-30T15:12:40;23.50;37.00
13198;DHT22;6664;52.514;13.440;2022-08-30T15:15:11;23.60;37.10
13198;DHT22;6664;52.514;13.440;2022-08-30T15:17:39;23.30;37.30
13198;DHT22;6664;52.514;13.440;2022-08-30T15:20:09;23.50;37.10
13198;DHT22;6664;52.514;13.440;2022-08-30T15:22:36;23.30;37.10
13198;DHT22;6664;52.514;13.440;2022-08-30T15:25:04;23.30;36.90
13198;DHT22;6664;52.514;13.440;2022-08-30T15:27:31;23.10;37.40
13198;DHT22;6664;52.514;13.440;2022-08-30T15:30:01;23.10;37.40
13198;DHT22;6664;52.514;13.440;2022-08-30T15:32:28;23.10;38.00
13198;DHT22;6664;52.514;13.440;2022-08-30T15:34:57;23.20;38.10
13198;DHT22;6664;52.514;13.440;2022-08-30T15:37:26;23.50;37.30
13198;DHT22;6664;52.514;13.440;2022-08-30T15:39:52;23.50;37.30
13198;DHT22;6664;52.514;13.440;2022-08-30T15:42:22;23.80;37.30
13198;DHT22;6664;52.514;13.440;2022-08-30T15:44:50;23.80;37.30
13198;DHT22;6664;52.514;13.440;2022-08-30T15:47:23;23.70;37.20
13198;DHT22;6664;52.514;13.440;2022-08-30T15:50:01;23.90;37.30
13198;DHT22;6664;52.514;13.440;2022-08-30T15:52:34;23.80;37.30
13198;DHT22;6664;52.514;13.440;2022-08-30T15:55:01;23.90;37.60
13198;DHT22;6664;52.514;13.440;2022-08-30T15:57:28;24.20;37.50
13198;DHT22;6664;52.514;13.440;2022-08-30T15:59:54;24.10;36.40
13198;DHT22;6664;52.514;13.440;2022-08-30T16:02:21;24.30;35.80
13198;DHT22;6664;52.514;13.440;2022-08-30T16:04:55;24.10;34.00
13198;DHT22;6664;52.514;13.440;2022-08-30T16:07:22;23.80;33.90
13198;DHT22;6664;52.514;13.440;2022-08-30T16:09:51;23.70;34.60
13198;DHT22;6664;52.514;13.440;2022-08-30T16:12:18;23.50;35.00
13198;DHT22;6664;52.514;13.440;2022-08-30T16:14:49;23.80;35.30
13198;DHT22;6664;52.514;13.440;2022-08-30T16:17:21;24.70;33.70
13198;DHT22;6664;52.514;13.440;2022-08-30T16:19:51;24.50;33.50
13198;DHT22;6664;52.514;13.440;2022-08-30T16:22:24;24.20;34.20
13198;DHT22;6664;52.514;13.440;2022-08-30T16:24:52;23.70;35.00
13198;DHT22;6664;52.514;13.440;2022-08-30T16:27:19;23.60;35.80
13198;DHT22;6664;52.514;13.440;2022-08-30T16:29:50;23.60;36.40
13198;DHT22;6664;52.514;13.440;2022-08-30T16:32:17;23.50;36.90
13198;DHT22;6664;52.514;13.440;2022-08-30T16:34:45;23.60;36.60
13198;DHT22;6664;52.514;13.440;2022-08-30T16:37:14;23.30;36.80
13198;DHT22;6664;52.514;13.440;2022-08-30T16:39:40;22.90;37.30
13198;DHT22;6664;52.514;13.440;2022-08-30T16:42:12;22.70;37.60
13198;DHT22;6664;52.514;13.440;2022-08-30T16:44:46;22.60;38.70
13198;DHT22;6664;52.514;13.440;2022-08-30T16:47:15;22.60;38.00
13198;DHT22;6664;52.514;13.440;2022-08-30T16:49:43;22.60;38.20
13198;DHT22;6664;52.514;13.440;2022-08-30T16:52:10;22.50;37.80
13198;DHT22;6664;52.514;13.440;2022-08-30T16:54:37;22.30;38.40
13198;DHT22;6664;52.514;13.440;2022-08-30T16:57:04;22.00;38.50
13198;DHT22;6664;52.514;13.440;2022-08-30T16:59:32;21.70;39.10
13198;DHT22;6664;52.514;13.440;2022-08-30T17:02:02;21.50;40.70
13198;DHT22;6664;52.514;13.440;2022-08-30T17:04:29;21.30;39.50
13198;DHT22;6664;52.514;13.440;2022-08-30T17:06:56;21.00;40.30
13198;DHT22;6664;52.514;13.440;2022-08-30T17:09:26;20.80;41.30
13198;DHT22;6664;52.514;13.440;2022-08-30T17:11:53;20.60;41.90
13198;DHT22;6664;52.514;13.440;2022-08-30T17:14:21;20.40;42.50
13198;DHT22;6664;52.514;13.440;2022-08-30T17:17:08;20.30;43.10
13198;DHT22;6664;52.514;13.440;2022-08-30T17:19:37;20.10;43.60
13198;DHT22;6664;52.514;13.440;2022-08-30T17:22:10;20.00;44.60